Terminal Aerodrome Forecast
Issued by NWS Mobile, AL

Home | Current Version | Previous Version | Text Only | Print | Product List | Glossary On
Versions: 1 2 3 4 5 6 7 8 9 10 11 12 13 14 15 16 17 18 19 20 21 22 23 24
000
FTUS44 KMOB 171700
TAFMOB
TAF
KMOB 171739Z 1718/1818 09003KT P6SM FEW030 SCT040
     FM180100 VRB02KT P6SM SCT200
     FM180900 VRB02KT 4SM BR SCT200
     FM181500 05004KT P6SM FEW250=

USA.gov is the U.S. government's official web portal to all federal, state and local government web resources and services.